sensor_id;sensor_type;location;lat;lon;timestamp;temperature;humidity
25640;DHT22;13497;48.322;16.204;2023-06-22T00:00:55;20.90;99.90
25640;DHT22;13497;48.322;16.204;2023-06-22T00:03:22;20.80;99.90
25640;DHT22;13497;48.322;16.204;2023-06-22T00:05:49;20.70;99.90
25640;DHT22;13497;48.322;16.204;2023-06-22T00:08:17;20.60;99.90
25640;DHT22;13497;48.322;16.204;2023-06-22T00:10:43;20.60;99.90
25640;DHT22;13497;48.322;16.204;2023-06-22T00:13:09;20.50;99.90
25640;DHT22;13497;48.322;16.204;2023-06-22T00:15:36;20.40;99.90
25640;DHT22;13497;48.322;16.204;2023-06-22T00:18:03;20.30;99.90
25640;DHT22;13497;48.322;16.204;2023-06-22T00:20:29;20.30;99.90
25640;DHT22;13497;48.322;16.204;2023-06-22T00:22:55;20.30;99.90
25640;DHT22;13497;48.322;16.204;2023-06-22T00:25:22;20.30;99.90
25640;DHT22;13497;48.322;16.204;2023-06-22T00:27:48;20.20;99.90
25640;DHT22;13497;48.322;16.204;2023-06-22T00:30:17;20.20;99.90
25640;DHT22;13497;48.322;16.204;2023-06-22T00:32:44;20.10;99.90
25640;DHT22;13497;48.322;16.204;2023-06-22T00:35:11;20.10;99.90
25640;DHT22;13497;48.322;16.204;2023-06-22T00:37:37;20.00;99.90
25640;DHT22;13497;48.322;16.204;2023-06-22T00:40:04;19.90;99.90
25640;DHT22;13497;48.322;16.204;2023-06-22T00:42:30;19.90;99.90
25640;DHT22;13497;48.322;16.204;2023-06-22T00:44:56;19.80;99.90
25640;DHT22;13497;48.322;16.204;2023-06-22T00:47:22;19.80;99.90
25640;DHT22;13497;48.322;16.204;2023-06-22T00:49:49;19.90;99.90
25640;DHT22;13497;48.322;16.204;2023-06-22T00:52:17;19.90;99.90
25640;DHT22;13497;48.322;16.204;2023-06-22T00:54:47;19.90;99.90
25640;DHT22;13497;48.322;16.204;2023-06-22T00:57:14;20.00;99.90
25640;DHT22;13497;48.322;16.204;2023-06-22T00:59:44;20.00;99.90
25640;DHT22;13497;48.322;16.204;2023-06-22T01:02:10;20.00;99.90
25640;DHT22;13497;48.322;16.204;2023-06-22T01:04:37;19.90;99.90
25640;DHT22;13497;48.322;16.204;2023-06-22T01:07:31;19.90;99.90
25640;DHT22;13497;48.322;16.204;2023-06-22T01:12:39;20.00;99.90
25640;DHT22;13497;48.322;16.204;2023-06-22T01:17:36;19.80;99.90
25640;DHT22;13497;48.322;16.204;2023-06-22T01:20:07;19.70;99.90
25640;DHT22;13497;48.322;16.204;2023-06-22T01:25:28;19.70;99.90
25640;DHT22;13497;48.322;16.204;2023-06-22T01:30:43;19.60;99.90
25640;DHT22;13497;48.322;16.204;2023-06-22T01:33:12;19.60;99.90
25640;DHT22;13497;48.322;16.204;2023-06-22T01:35:39;19.60;99.90
25640;DHT22;13497;48.322;16.204;2023-06-22T01:38:05;19.50;99.90
25640;DHT22;13497;48.322;16.204;2023-06-22T01:40:33;19.60;99.90
25640;DHT22;13497;48.322;16.204;2023-06-22T01:43:01;19.60;99.90
25640;DHT22;13497;48.322;16.204;2023-06-22T01:45:28;19.60;99.90
25640;DHT22;13497;48.322;16.204;2023-06-22T01:47:54;19.60;99.90
25640;DHT22;13497;48.322;16.204;2023-06-22T01:50:20;19.50;99.90
25640;DHT22;13497;48.322;16.204;2023-06-22T01:52:46;19.50;99.90
25640;DHT22;13497;48.322;16.204;2023-06-22T01:55:12;19.50;99.90
25640;DHT22;13497;48.322;16.204;2023-06-22T01:57:38;19.50;99.90
25640;DHT22;13497;48.322;16.204;2023-06-22T02:00:07;19.50;99.90
25640;DHT22;13497;48.322;16.204;2023-06-22T02:02:40;19.50;99.90
25640;DHT22;13497;48.322;16.204;2023-06-22T02:05:09;19.40;99.90
25640;DHT22;13497;48.322;16.204;2023-06-22T02:08:00;19.40;99.90
25640;DHT22;13497;48.322;16.204;2023-06-22T02:10:28;19.40;99.90
25640;DHT22;13497;48.322;16.204;2023-06-22T02:12:54;19.40;99.90
25640;DHT22;13497;48.322;16.204;2023-06-22T02:15:20;19.40;99.90
25640;DHT22;13497;48.322;16.204;2023-06-22T02:17:47;19.30;99.90
25640;DHT22;13497;48.322;16.204;2023-06-22T02:20:14;19.30;99.90
25640;DHT22;13497;48.322;16.204;2023-06-22T02:22:40;19.20;99.90
25640;DHT22;13497;48.322;16.204;2023-06-22T02:25:06;19.20;99.90
25640;DHT22;13497;48.322;16.204;2023-06-22T02:27:32;19.10;99.90
25640;DHT22;13497;48.322;16.204;2023-06-22T02:29:57;18.90;99.90
25640;DHT22;13497;48.322;16.204;2023-06-22T02:32:23;18.90;99.90
25640;DHT22;13497;48.322;16.204;2023-06-22T02:34:49;18.90;99.90
25640;DHT22;13497;48.322;16.204;2023-06-22T02:37:16;18.90;99.90
25640;DHT22;13497;48.322;16.204;2023-06-22T02:39:42;19.00;99.90
25640;DHT22;13497;48.322;16.204;2023-06-22T02:42:08;19.00;99.90
25640;DHT22;13497;48.322;16.204;2023-06-22T02:44:36;19.10;99.90
25640;DHT22;13497;48.322;16.204;2023-06-22T02:47:02;19.20;99.90
25640;DHT22;13497;48.322;16.204;2023-06-22T02:49:27;19.30;99.90
25640;DHT22;13497;48.322;16.204;2023-06-22T02:51:53;19.20;99.90
25640;DHT22;13497;48.322;16.204;2023-06-22T02:54:20;19.20;99.90
25640;DHT22;13497;48.322;16.204;2023-06-22T02:56:46;19.20;99.90
25640;DHT22;13497;48.322;16.204;2023-06-22T02:59:13;19.20;99.90
25640;DHT22;13497;48.322;16.204;2023-06-22T03:01:39;19.20;99.90
25640;DHT22;13497;48.322;16.204;2023-06-22T03:04:08;19.20;99.90
25640;DHT22;13497;48.322;16.204;2023-06-22T03:06:34;19.30;99.90
25640;DHT22;13497;48.322;16.204;2023-06-22T03:09:00;19.30;99.90
25640;DHT22;13497;48.322;16.204;2023-06-22T03:11:27;19.30;99.90
25640;DHT22;13497;48.322;16.204;2023-06-22T03:13:52;19.40;99.90
25640;DHT22;13497;48.322;16.204;2023-06-22T03:16:19;19.40;99.90
25640;DHT22;13497;48.322;16.204;2023-06-22T03:18:44;19.40;99.90
25640;DHT22;13497;48.322;16.204;2023-06-22T03:21:10;19.30;99.90
25640;DHT22;13497;48.322;16.204;2023-06-22T03:23:37;19.20;99.90
25640;DHT22;13497;48.322;16.204;2023-06-22T03:26:03;19.20;99.90
25640;DHT22;13497;48.322;16.204;2023-06-22T03:28:29;19.20;99.90
25640;DHT22;13497;48.322;16.204;2023-06-22T03:30:57;19.40;99.90
25640;DHT22;13497;48.322;16.204;2023-06-22T03:33:23;19.50;99.90
25640;DHT22;13497;48.322;16.204;2023-06-22T03:35:49;19.50;99.90
25640;DHT22;13497;48.322;16.204;2023-06-22T03:38:16;19.60;99.90
25640;DHT22;13497;48.322;16.204;2023-06-22T03:40:42;19.60;99.90
25640;DHT22;13497;48.322;16.204;2023-06-22T03:43:07;19.70;99.90
25640;DHT22;13497;48.322;16.204;2023-06-22T03:45:33;19.80;99.90
25640;DHT22;13497;48.322;16.204;2023-06-22T03:47:59;19.90;99.90
25640;DHT22;13497;48.322;16.204;2023-06-22T03:50:25;19.90;99.90
25640;DHT22;13497;48.322;16.204;2023-06-22T03:52:51;20.00;99.90
25640;DHT22;13497;48.322;16.204;2023-06-22T03:55:19;20.10;99.90
25640;DHT22;13497;48.322;16.204;2023-06-22T03:57:45;20.20;99.90
25640;DHT22;13497;48.322;16.204;2023-06-22T04:00:12;20.60;99.90
25640;DHT22;13497;48.322;16.204;2023-06-22T04:02:37;21.00;99.90
25640;DHT22;13497;48.322;16.204;2023-06-22T04:05:03;21.20;99.90
25640;DHT22;13497;48.322;16.204;2023-06-22T04:07:29;21.60;99.90
25640;DHT22;13497;48.322;16.204;2023-06-22T04:09:55;21.90;99.90
25640;DHT22;13497;48.322;16.204;2023-06-22T04:12:21;22.10;99.90
25640;DHT22;13497;48.322;16.204;2023-06-22T04:14:46;22.20;99.90
25640;DHT22;13497;48.322;16.204;2023-06-22T04:17:12;22.70;99.90
25640;DHT22;13497;48.322;16.204;2023-06-22T04:19:40;22.90;99.90
25640;DHT22;13497;48.322;16.204;2023-06-22T04:22:06;23.30;99.90
25640;DHT22;13497;48.322;16.204;2023-06-22T04:24:35;23.60;99.90
25640;DHT22;13497;48.322;16.204;2023-06-22T04:27:01;23.30;99.90
25640;DHT22;13497;48.322;16.204;2023-06-22T04:29:28;23.50;99.90
25640;DHT22;13497;48.322;16.204;2023-06-22T04:31:56;24.10;99.90
25640;DHT22;13497;48.322;16.204;2023-06-22T04:34:24;24.60;99.90
25640;DHT22;13497;48.322;16.204;2023-06-22T04:36:52;25.00;99.90
25640;DHT22;13497;48.322;16.204;2023-06-22T04:39:17;25.40;99.90
25640;DHT22;13497;48.322;16.204;2023-06-22T04:41:44;25.30;99.90
25640;DHT22;13497;48.322;16.204;2023-06-22T04:44:17;25.00;99.90
25640;DHT22;13497;48.322;16.204;2023-06-22T04:46:53;25.30;99.90
25640;DHT22;13497;48.322;16.204;2023-06-22T04:49:20;25.70;99.90
25640;DHT22;13497;48.322;16.204;2023-06-22T04:51:47;26.00;99.90
25640;DHT22;13497;48.322;16.204;2023-06-22T04:54:13;26.00;99.90
25640;DHT22;13497;48.322;16.204;2023-06-22T04:56:38;26.00;99.90
25640;DHT22;13497;48.322;16.204;2023-06-22T04:59:06;25.90;99.90
25640;DHT22;13497;48.322;16.204;2023-06-22T05:01:32;25.80;99.90
25640;DHT22;13497;48.322;16.204;2023-06-22T05:04:00;25.90;99.90
25640;DHT22;13497;48.322;16.204;2023-06-22T05:06:27;26.00;99.90
25640;DHT22;13497;48.322;16.204;2023-06-22T05:08:57;26.40;99.90
25640;DHT22;13497;48.322;16.204;2023-06-22T05:11:26;26.90;99.90
25640;DHT22;13497;48.322;16.204;2023-06-22T05:13:52;27.50;99.90
25640;DHT22;13497;48.322;16.204;2023-06-22T05:16:17;28.20;99.90
25640;DHT22;13497;48.322;16.204;2023-06-22T05:18:48;28.70;99.80
25640;DHT22;13497;48.322;16.204;2023-06-22T05:21:13;28.80;99.30
25640;DHT22;13497;48.322;16.204;2023-06-22T05:23:39;29.10;99.10
25640;DHT22;13497;48.322;16.204;2023-06-22T05:26:05;29.40;98.40
25640;DHT22;13497;48.322;16.204;2023-06-22T05:28:30;30.00;97.60
25640;DHT22;13497;48.322;16.204;2023-06-22T05:30:56;30.00;97.50
25640;DHT22;13497;48.322;16.204;2023-06-22T05:33:21;29.80;97.50
25640;DHT22;13497;48.322;16.204;2023-06-22T05:35:47;29.70;97.60
25640;DHT22;13497;48.322;16.204;2023-06-22T05:38:14;29.50;97.50
25640;DHT22;13497;48.322;16.204;2023-06-22T05:40:39;29.00;98.10
25640;DHT22;13497;48.322;16.204;2023-06-22T05:43:05;29.20;98.20
25640;DHT22;13497;48.322;16.204;2023-06-22T05:45:31;29.50;97.80
25640;DHT22;13497;48.322;16.204;2023-06-22T05:47:56;30.00;97.30
25640;DHT22;13497;48.322;16.204;2023-06-22T05:50:22;30.20;97.00
25640;DHT22;13497;48.322;16.204;2023-06-22T05:52:47;30.00;97.10
25640;DHT22;13497;48.322;16.204;2023-06-22T05:55:13;30.10;97.10
25640;DHT22;13497;48.322;16.204;2023-06-22T05:57:40;30.60;96.10
25640;DHT22;13497;48.322;16.204;2023-06-22T06:00:07;30.90;96.00
25640;DHT22;13497;48.322;16.204;2023-06-22T06:02:36;31.30;96.00
25640;DHT22;13497;48.322;16.204;2023-06-22T06:05:02;31.60;95.20
25640;DHT22;13497;48.322;16.204;2023-06-22T06:07:28;31.60;95.00
25640;DHT22;13497;48.322;16.204;2023-06-22T06:09:55;32.10;94.40
25640;DHT22;13497;48.322;16.204;2023-06-22T06:12:20;31.90;94.40
25640;DHT22;13497;48.322;16.204;2023-06-22T06:14:46;31.60;94.60
25640;DHT22;13497;48.322;16.204;2023-06-22T06:17:12;31.20;95.10
25640;DHT22;13497;48.322;16.204;2023-06-22T06:19:38;31.00;95.10
25640;DHT22;13497;48.322;16.204;2023-06-22T06:22:04;30.50;95.60
25640;DHT22;13497;48.322;16.204;2023-06-22T06:24:30;30.70;95.90
25640;DHT22;13497;48.322;16.204;2023-06-22T06:26:55;31.20;94.80
25640;DHT22;13497;48.322;16.204;2023-06-22T06:29:21;31.40;94.50
25640;DHT22;13497;48.322;16.204;2023-06-22T06:31:49;31.50;94.00
25640;DHT22;13497;48.322;16.204;2023-06-22T06:34:14;31.40;94.30
25640;DHT22;13497;48.322;16.204;2023-06-22T06:36:40;31.60;94.30
25640;DHT22;13497;48.322;16.204;2023-06-22T06:39:06;30.80;95.20
25640;DHT22;13497;48.322;16.204;2023-06-22T06:41:31;30.80;95.30
25640;DHT22;13497;48.322;16.204;2023-06-22T06:43:57;30.80;95.10
25640;DHT22;13497;48.322;16.204;2023-06-22T06:46:23;30.60;95.40
25640;DHT22;13497;48.322;16.204;2023-06-22T06:48:48;30.90;94.90
25640;DHT22;13497;48.322;16.204;2023-06-22T06:51:14;30.40;95.40
25640;DHT22;13497;48.322;16.204;2023-06-22T06:53:39;29.70;96.50
25640;DHT22;13497;48.322;16.204;2023-06-22T06:56:05;30.10;96.10
25640;DHT22;13497;48.322;16.204;2023-06-22T06:58:31;29.70;96.30
25640;DHT22;13497;48.322;16.204;2023-06-22T07:00:58;28.90;97.00
25640;DHT22;13497;48.322;16.204;2023-06-22T07:03:23;28.60;97.40
25640;DHT22;13497;48.322;16.204;2023-06-22T07:05:49;28.30;98.10
25640;DHT22;13497;48.322;16.204;2023-06-22T07:08:15;27.80;97.90
25640;DHT22;13497;48.322;16.204;2023-06-22T07:10:40;27.10;98.90
25640;DHT22;13497;48.322;16.204;2023-06-22T07:13:06;26.70;99.20
25640;DHT22;13497;48.322;16.204;2023-06-22T07:15:31;26.50;99.70
25640;DHT22;13497;48.322;16.204;2023-06-22T07:17:57;26.30;99.90
25640;DHT22;13497;48.322;16.204;2023-06-22T07:20:23;26.50;99.90
25640;DHT22;13497;48.322;16.204;2023-06-22T07:22:48;26.50;99.90
25640;DHT22;13497;48.322;16.204;2023-06-22T07:25:14;26.50;99.90
25640;DHT22;13497;48.322;16.204;2023-06-22T07:27:56;26.30;99.90
25640;DHT22;13497;48.322;16.204;2023-06-22T07:30:22;26.20;99.90
25640;DHT22;13497;48.322;16.204;2023-06-22T07:32:48;26.10;99.90
25640;DHT22;13497;48.322;16.204;2023-06-22T07:35:14;26.20;99.90
25640;DHT22;13497;48.322;16.204;2023-06-22T07:37:42;26.10;99.90
25640;DHT22;13497;48.322;16.204;2023-06-22T07:40:08;25.90;99.90
25640;DHT22;13497;48.322;16.204;2023-06-22T07:42:34;26.00;99.90
25640;DHT22;13497;48.322;16.204;2023-06-22T07:45:00;26.00;99.90
25640;DHT22;13497;48.322;16.204;2023-06-22T07:47:26;26.00;99.90
25640;DHT22;13497;48.322;16.204;2023-06-22T07:49:58;26.20;99.90
25640;DHT22;13497;48.322;16.204;2023-06-22T07:52:26;26.70;99.90
25640;DHT22;13497;48.322;16.204;2023-06-22T07:54:52;26.90;99.90
25640;DHT22;13497;48.322;16.204;2023-06-22T07:57:18;26.90;99.90
25640;DHT22;13497;48.322;16.204;2023-06-22T07:59:44;26.80;99.90
25640;DHT22;13497;48.322;16.204;2023-06-22T08:02:10;26.40;99.90
25640;DHT22;13497;48.322;16.204;2023-06-22T08:04:35;26.10;99.90
25640;DHT22;13497;48.322;16.204;2023-06-22T08:07:01;26.20;99.90
25640;DHT22;13497;48.322;16.204;2023-06-22T08:09:31;26.00;99.90
25640;DHT22;13497;48.322;16.204;2023-06-22T08:11:57;26.10;99.90
25640;DHT22;13497;48.322;16.204;2023-06-22T08:14:26;26.20;99.90
25640;DHT22;13497;48.322;16.204;2023-06-22T08:16:52;26.40;99.90
25640;DHT22;13497;48.322;16.204;2023-06-22T08:19:18;26.70;99.90
25640;DHT22;13497;48.322;16.204;2023-06-22T08:21:43;27.00;99.90
25640;DHT22;13497;48.322;16.204;2023-06-22T08:24:09;27.10;99.90
25640;DHT22;13497;48.322;16.204;2023-06-22T08:26:34;27.00;99.90
25640;DHT22;13497;48.322;16.204;2023-06-22T08:29:04;27.20;99.90
25640;DHT22;13497;48.322;16.204;2023-06-22T08:31:31;27.00;99.90
25640;DHT22;13497;48.322;16.204;2023-06-22T08:33:58;26.90;99.90
25640;DHT22;13497;48.322;16.204;2023-06-22T08:36:24;27.00;99.90
25640;DHT22;13497;48.322;16.204;2023-06-22T08:38:50;26.90;99.90
25640;DHT22;13497;48.322;16.204;2023-06-22T08:41:17;26.90;99.90
25640;DHT22;13497;48.322;16.204;2023-06-22T08:43:43;26.80;99.90
25640;DHT22;13497;48.322;16.204;2023-06-22T08:46:12;26.80;99.90
25640;DHT22;13497;48.322;16.204;2023-06-22T08:48:38;26.70;99.90
25640;DHT22;13497;48.322;16.204;2023-06-22T08:51:04;26.60;99.90
25640;DHT22;13497;48.322;16.204;2023-06-22T08:53:30;26.60;99.90
25640;DHT22;13497;48.322;16.204;2023-06-22T08:55:55;26.70;99.90
25640;DHT22;13497;48.322;16.204;2023-06-22T08:58:21;27.00;99.90
25640;DHT22;13497;48.322;16.204;2023-06-22T09:00:47;27.10;99.90
25640;DHT22;13497;48.322;16.204;2023-06-22T09:03:13;27.40;99.90
25640;DHT22;13497;48.322;16.204;2023-06-22T09:05:38;27.50;99.90
25640;DHT22;13497;48.322;16.204;2023-06-22T09:08:04;27.80;99.70
25640;DHT22;13497;48.322;16.204;2023-06-22T09:10:30;28.00;99.00
25640;DHT22;13497;48.322;16.204;2023-06-22T09:12:57;28.00;99.10
25640;DHT22;13497;48.322;16.204;2023-06-22T09:15:22;28.00;98.40
25640;DHT22;13497;48.322;16.204;2023-06-22T09:17:48;28.00;98.60
25640;DHT22;13497;48.322;16.204;2023-06-22T09:20:14;28.00;98.90
25640;DHT22;13497;48.322;16.204;2023-06-22T09:22:41;28.30;98.50
25640;DHT22;13497;48.322;16.204;2023-06-22T09:25:07;28.30;98.40
25640;DHT22;13497;48.322;16.204;2023-06-22T09:27:33;28.30;98.10
25640;DHT22;13497;48.322;16.204;2023-06-22T09:29:59;28.20;98.20
25640;DHT22;13497;48.322;16.204;2023-06-22T09:32:25;28.30;98.20
25640;DHT22;13497;48.322;16.204;2023-06-22T09:34:51;28.10;98.70
25640;DHT22;13497;48.322;16.204;2023-06-22T09:37:17;27.80;99.20
25640;DHT22;13497;48.322;16.204;2023-06-22T09:39:42;27.80;99.30
25640;DHT22;13497;48.322;16.204;2023-06-22T09:42:08;27.90;99.10
25640;DHT22;13497;48.322;16.204;2023-06-22T09:44:34;28.10;98.90
25640;DHT22;13497;48.322;16.204;2023-06-22T09:46:59;28.40;99.10
25640;DHT22;13497;48.322;16.204;2023-06-22T09:49:25;28.70;98.10
25640;DHT22;13497;48.322;16.204;2023-06-22T09:51:51;28.50;98.00
25640;DHT22;13497;48.322;16.204;2023-06-22T09:54:17;28.40;98.70
25640;DHT22;13497;48.322;16.204;2023-06-22T09:56:43;28.40;98.70
25640;DHT22;13497;48.322;16.204;2023-06-22T09:59:08;28.60;98.50
25640;DHT22;13497;48.322;16.204;2023-06-22T10:01:34;28.50;98.60
25640;DHT22;13497;48.322;16.204;2023-06-22T10:04:00;28.30;98.70
25640;DHT22;13497;48.322;16.204;2023-06-22T10:06:25;28.50;98.60
25640;DHT22;13497;48.322;16.204;2023-06-22T10:08:51;28.60;98.70
25640;DHT22;13497;48.322;16.204;2023-06-22T10:11:17;28.50;98.30
25640;DHT22;13497;48.322;16.204;2023-06-22T10:13:42;28.60;98.70
25640;DHT22;13497;48.322;16.204;2023-06-22T10:16:08;28.80;98.30
25640;DHT22;13497;48.322;16.204;2023-06-22T10:18:34;28.80;98.20
25640;DHT22;13497;48.322;16.204;2023-06-22T10:21:00;28.80;98.10
25640;DHT22;13497;48.322;16.204;2023-06-22T10:23:25;28.70;98.40
25640;DHT22;13497;48.322;16.204;2023-06-22T10:25:51;28.80;97.60
25640;DHT22;13497;48.322;16.204;2023-06-22T10:28:17;29.00;97.70
25640;DHT22;13497;48.322;16.204;2023-06-22T10:30:42;29.10;97.40
25640;DHT22;13497;48.322;16.204;2023-06-22T10:33:11;29.00;97.10
25640;DHT22;13497;48.322;16.204;2023-06-22T10:35:38;28.80;97.30
25640;DHT22;13497;48.322;16.204;2023-06-22T10:38:04;29.00;97.20
25640;DHT22;13497;48.322;16.204;2023-06-22T10:40:30;29.40;96.50
25640;DHT22;13497;48.322;16.204;2023-06-22T10:42:56;29.40;96.50
25640;DHT22;13497;48.322;16.204;2023-06-22T10:45:21;29.10;96.60
25640;DHT22;13497;48.322;16.204;2023-06-22T10:47:47;29.10;96.90
25640;DHT22;13497;48.322;16.204;2023-06-22T10:50:13;28.90;97.00
25640;DHT22;13497;48.322;16.204;2023-06-22T10:52:38;28.90;96.80
25640;DHT22;13497;48.322;16.204;2023-06-22T10:55:05;29.00;96.70
25640;DHT22;13497;48.322;16.204;2023-06-22T10:57:31;29.10;96.90
25640;DHT22;13497;48.322;16.204;2023-06-22T10:59:56;29.20;96.80
25640;DHT22;13497;48.322;16.204;2023-06-22T11:02:22;29.70;96.50
25640;DHT22;13497;48.322;16.204;2023-06-22T11:04:48;30.00;96.30
25640;DHT22;13497;48.322;16.204;2023-06-22T11:07:14;30.10;96.10
25640;DHT22;13497;48.322;16.204;2023-06-22T11:09:40;30.10;95.70
25640;DHT22;13497;48.322;16.204;2023-06-22T11:12:08;30.00;95.90
25640;DHT22;13497;48.322;16.204;2023-06-22T11:14:33;30.00;96.20
25640;DHT22;13497;48.322;16.204;2023-06-22T11:16:59;30.30;96.00
25640;DHT22;13497;48.322;16.204;2023-06-22T11:19:25;30.60;95.60
25640;DHT22;13497;48.322;16.204;2023-06-22T11:21:50;30.40;95.50
25640;DHT22;13497;48.322;16.204;2023-06-22T11:24:17;30.40;95.70
25640;DHT22;13497;48.322;16.204;2023-06-22T11:26:43;30.30;95.60
25640;DHT22;13497;48.322;16.204;2023-06-22T11:29:08;30.10;95.80
25640;DHT22;13497;48.322;16.204;2023-06-22T11:31:35;30.30;95.50
25640;DHT22;13497;48.322;16.204;2023-06-22T11:34:01;30.30;95.90
25640;DHT22;13497;48.322;16.204;2023-06-22T11:36:27;30.70;95.70
25640;DHT22;13497;48.322;16.204;2023-06-22T11:38:52;30.80;95.00
25640;DHT22;13497;48.322;16.204;2023-06-22T11:41:18;30.90;95.20
25640;DHT22;13497;48.322;16.204;2023-06-22T11:43:44;30.80;94.20
25640;DHT22;13497;48.322;16.204;2023-06-22T11:46:10;31.20;94.20
25640;DHT22;13497;48.322;16.204;2023-06-22T11:48:36;31.30;93.70
25640;DHT22;13497;48.322;16.204;2023-06-22T11:51:02;31.30;93.70
25640;DHT22;13497;48.322;16.204;2023-06-22T11:53:28;31.30;93.50
25640;DHT22;13497;48.322;16.204;2023-06-22T11:55:55;31.50;93.70
25640;DHT22;13497;48.322;16.204;2023-06-22T11:58:21;31.50;93.30
25640;DHT22;13497;48.322;16.204;2023-06-22T12:00:47;31.40;93.70
25640;DHT22;13497;48.322;16.204;2023-06-22T12:03:13;31.20;93.60
25640;DHT22;13497;48.322;16.204;2023-06-22T12:05:42;31.20;93.70
25640;DHT22;13497;48.322;16.204;2023-06-22T12:08:07;31.30;93.60
25640;DHT22;13497;48.322;16.204;2023-06-22T12:10:33;31.40;93.70
25640;DHT22;13497;48.322;16.204;2023-06-22T12:12:59;31.60;93.30
25640;DHT22;13497;48.322;16.204;2023-06-22T12:15:27;31.70;93.40
25640;DHT22;13497;48.322;16.204;2023-06-22T12:17:52;32.00;93.50
25640;DHT22;13497;48.322;16.204;2023-06-22T12:20:18;31.50;93.30
25640;DHT22;13497;48.322;16.204;2023-06-22T12:22:44;31.40;93.50
25640;DHT22;13497;48.322;16.204;2023-06-22T12:25:10;31.80;93.80
25640;DHT22;13497;48.322;16.204;2023-06-22T12:27:37;31.80;93.10
25640;DHT22;13497;48.322;16.204;2023-06-22T12:30:03;32.00;93.40
25640;DHT22;13497;48.322;16.204;2023-06-22T12:32:29;31.50;93.50
25640;DHT22;13497;48.322;16.204;2023-06-22T12:34:55;31.50;93.90
25640;DHT22;13497;48.322;16.204;2023-06-22T12:37:22;31.60;93.40
25640;DHT22;13497;48.322;16.204;2023-06-22T12:39:47;31.60;93.50
25640;DHT22;13497;48.322;16.204;2023-06-22T12:42:13;31.50;93.10
25640;DHT22;13497;48.322;16.204;2023-06-22T12:44:39;31.20;93.10
25640;DHT22;13497;48.322;16.204;2023-06-22T12:47:08;31.20;93.60
25640;DHT22;13497;48.322;16.204;2023-06-22T12:49:34;31.40;93.30
25640;DHT22;13497;48.322;16.204;2023-06-22T12:52:01;31.30;93.40
25640;DHT22;13497;48.322;16.204;2023-06-22T12:54:26;31.00;93.70
25640;DHT22;13497;48.322;16.204;2023-06-22T12:56:53;31.20;93.80
25640;DHT22;13497;48.322;16.204;2023-06-22T12:59:19;31.30;93.70
25640;DHT22;13497;48.322;16.204;2023-06-22T13:01:45;31.50;93.70
25640;DHT22;13497;48.322;16.204;2023-06-22T13:04:12;32.00;93.30
25640;DHT22;13497;48.322;16.204;2023-06-22T13:06:43;31.60;92.60
25640;DHT22;13497;48.322;16.204;2023-06-22T13:09:10;31.70;93.20
25640;DHT22;13497;48.322;16.204;2023-06-22T13:11:35;31.80;93.10
25640;DHT22;13497;48.322;16.204;2023-06-22T13:14:01;31.20;93.20
25640;DHT22;13497;48.322;16.204;2023-06-22T13:16:27;31.10;93.60
25640;DHT22;13497;48.322;16.204;2023-06-22T13:18:53;31.40;93.60
25640;DHT22;13497;48.322;16.204;2023-06-22T13:21:18;31.70;93.00
25640;DHT22;13497;48.322;16.204;2023-06-22T13:23:44;31.70;93.40
25640;DHT22;13497;48.322;16.204;2023-06-22T13:26:10;31.80;93.20
25640;DHT22;13497;48.322;16.204;2023-06-22T13:28:35;32.00;93.00
25640;DHT22;13497;48.322;16.204;2023-06-22T13:31:01;32.00;93.10
25640;DHT22;13497;48.322;16.204;2023-06-22T13:33:27;31.80;93.20
25640;DHT22;13497;48.322;16.204;2023-06-22T13:35:52;31.90;93.10
25640;DHT22;13497;48.322;16.204;2023-06-22T13:38:18;31.70;92.80
25640;DHT22;13497;48.322;16.204;2023-06-22T13:40:44;31.80;93.20
25640;DHT22;13497;48.322;16.204;2023-06-22T13:43:10;31.50;93.40
25640;DHT22;13497;48.322;16.204;2023-06-22T13:45:36;31.40;93.50
25640;DHT22;13497;48.322;16.204;2023-06-22T13:48:01;31.40;93.50
25640;DHT22;13497;48.322;16.204;2023-06-22T13:50:27;31.50;93.70
25640;DHT22;13497;48.322;16.204;2023-06-22T13:52:54;31.60;93.70
25640;DHT22;13497;48.322;16.204;2023-06-22T13:55:20;31.80;93.50
25640;DHT22;13497;48.322;16.204;2023-06-22T13:57:46;31.60;93.60
25640;DHT22;13497;48.322;16.204;2023-06-22T14:00:12;31.30;93.90
25640;DHT22;13497;48.322;16.204;2023-06-22T14:02:38;31.20;94.10
25640;DHT22;13497;48.322;16.204;2023-06-22T14:05:05;31.40;93.80
25640;DHT22;13497;48.322;16.204;2023-06-22T14:07:31;31.40;93.70
25640;DHT22;13497;48.322;16.204;2023-06-22T14:09:57;31.30;93.90
25640;DHT22;13497;48.322;16.204;2023-06-22T14:12:23;31.60;94.00
25640;DHT22;13497;48.322;16.204;2023-06-22T14:14:49;31.60;93.60
25640;DHT22;13497;48.322;16.204;2023-06-22T14:17:15;31.90;93.70
25640;DHT22;13497;48.322;16.204;2023-06-22T14:19:40;31.80;93.50
25640;DHT22;13497;48.322;16.204;2023-06-22T14:22:06;31.80;93.30
25640;DHT22;13497;48.322;16.204;2023-06-22T14:24:32;31.80;93.60
25640;DHT22;13497;48.322;16.204;2023-06-22T14:26:57;31.90;93.40
25640;DHT22;13497;48.322;16.204;2023-06-22T14:29:23;32.00;93.30
25640;DHT22;13497;48.322;16.204;2023-06-22T14:31:49;32.10;93.10
25640;DHT22;13497;48.322;16.204;2023-06-22T14:34:15;32.10;93.10
25640;DHT22;13497;48.322;16.204;2023-06-22T14:36:41;32.30;93.30
25640;DHT22;13497;48.322;16.204;2023-06-22T14:39:08;32.10;93.10
25640;DHT22;13497;48.322;16.204;2023-06-22T14:41:33;32.20;93.20
25640;DHT22;13497;48.322;16.204;2023-06-22T14:43:59;32.50;93.00
25640;DHT22;13497;48.322;16.204;2023-06-22T14:46:25;32.70;93.10
25640;DHT22;13497;48.322;16.204;2023-06-22T14:48:50;32.90;92.70
25640;DHT22;13497;48.322;16.204;2023-06-22T14:51:16;33.00;92.30
25640;DHT22;13497;48.322;16.204;2023-06-22T14:53:44;33.00;92.70
25640;DHT22;13497;48.322;16.204;2023-06-22T14:56:10;33.10;92.50
25640;DHT22;13497;48.322;16.204;2023-06-22T14:58:35;33.30;92.60
25640;DHT22;13497;48.322;16.204;2023-06-22T15:01:02;33.60;92.40
25640;DHT22;13497;48.322;16.204;2023-06-22T15:03:29;33.40;91.30
25640;DHT22;13497;48.322;16.204;2023-06-22T15:05:57;33.50;92.00
25640;DHT22;13497;48.322;16.204;2023-06-22T15:08:23;33.60;92.00
25640;DHT22;13497;48.322;16.204;2023-06-22T15:10:50;33.90;91.70
25640;DHT22;13497;48.322;16.204;2023-06-22T15:13:16;33.90;91.60
25640;DHT22;13497;48.322;16.204;2023-06-22T15:15:43;33.70;91.10
25640;DHT22;13497;48.322;16.204;2023-06-22T15:18:08;33.30;91.80
25640;DHT22;13497;48.322;16.204;2023-06-22T15:20:34;33.30;92.00